createdAt,value
2022-09-10T00:01:25.145Z,69.54
2022-09-10T00:03:54.540Z,69.42
2022-09-10T00:06:27.453Z,69.23
2022-09-10T00:08:57.183Z,69.22
2022-09-10T00:11:26.212Z,69.15
2022-09-10T00:13:52.943Z,69.27
2022-09-10T00:16:19.834Z,69.19
2022-09-10T00:18:47.469Z,69.16
2022-09-10T00:21:17.070Z,69.19
2022-09-10T00:23:45.526Z,69.13
2022-09-10T00:26:14.816Z,69.31
2022-09-10T00:28:42.341Z,69.40
2022-09-10T00:31:09.425Z,69.46
2022-09-10T00:33:36.203Z,69.50
2022-09-10T00:36:05.903Z,69.68
2022-09-10T00:38:32.630Z,69.43
2022-09-10T00:41:04.734Z,69.46
2022-09-10T00:43:52.429Z,69.36
2022-09-10T00:46:29.588Z,69.54
2022-09-10T00:48:58.424Z,69.82
2022-09-10T00:51:26.826Z,69.42
2022-09-10T00:53:54.045Z,69.50
2022-09-10T00:56:21.067Z,69.44
2022-09-10T00:58:48.524Z,69.47
2022-09-10T01:01:15.302Z,69.63
2022-09-10T01:03:43.812Z,69.54
2022-09-10T01:06:10.934Z,69.59
2022-09-10T01:08:37.966Z,69.66
2022-09-10T01:11:56.951Z,69.91
2022-09-10T01:14:59.214Z,69.93
2022-09-10T01:17:41.016Z,69.79
2022-09-10T01:20:35.866Z,70.03
2022-09-10T01:23:15.687Z,70.13
2022-09-10T01:25:59.413Z,70.11
2022-09-10T01:28:31.226Z,70.17
2022-09-10T01:31:04.500Z,70.19
2022-09-10T01:33:35.142Z,70.00
2022-09-10T01:36:06.093Z,69.79
2022-09-10T01:38:35.553Z,70.16
2022-09-10T01:41:02.273Z,69.89
2022-09-10T01:43:28.952Z,69.87
2022-09-10T01:46:10.837Z,69.64
2022-09-10T01:49:13.730Z,69.84
2022-09-10T01:52:01.032Z,69.98
2022-09-10T01:54:45.493Z,69.82
2022-09-10T01:57:50.200Z,70.00
2022-09-10T02:00:18.575Z,69.93
2022-09-10T02:02:52.568Z,69.93
2022-09-10T02:05:20.931Z,69.97
2022-09-10T02:07:49.007Z,70.07
2022-09-10T02:10:15.712Z,69.91
2022-09-10T02:12:42.421Z,69.97
2022-09-10T02:15:11.448Z,70.23
2022-09-10T02:17:38.635Z,70.24
2022-09-10T02:20:08.788Z,70.20
2022-09-10T02:22:38.314Z,70.19
2022-09-10T02:25:05.704Z,70.37
2022-09-10T02:27:32.888Z,70.19
2022-09-10T02:29:59.606Z,70.12
2022-09-10T02:32:26.316Z,70.16
2022-09-10T02:34:53.012Z,70.20
2022-09-10T02:37:20.149Z,70.17
2022-09-10T02:39:46.901Z,69.96
2022-09-10T02:42:16.901Z,69.98
2022-09-10T02:44:44.831Z,70.17
2022-09-10T02:47:11.797Z,70.15
2022-09-10T02:49:38.510Z,70.21
2022-09-10T02:52:05.445Z,70.18
2022-09-10T02:54:32.461Z,70.18
2022-09-10T02:56:59.154Z,70.39
2022-09-10T02:59:25.908Z,70.20
2022-09-10T03:01:54.043Z,70.04
2022-09-10T03:04:20.757Z,70.15
2022-09-10T03:06:49.231Z,70.25
2022-09-10T03:09:17.069Z,70.27
2022-09-10T03:11:43.756Z,70.11
2022-09-10T03:14:10.859Z,70.21
2022-09-10T03:16:37.562Z,70.20
2022-09-10T03:19:04.279Z,70.37
2022-09-10T03:21:30.981Z,70.35
2022-09-10T03:23:57.715Z,70.39
2022-09-10T03:26:25.310Z,70.22
2022-09-10T03:28:52.281Z,70.37
2022-09-10T03:31:19.091Z,69.98
2022-09-10T03:33:46.260Z,70.24
2022-09-10T03:36:15.870Z,70.33
2022-09-10T03:38:42.583Z,70.21
2022-09-10T03:41:09.381Z,70.46
2022-09-10T03:43:36.217Z,70.17
2022-09-10T03:46:03.202Z,70.22
2022-09-10T03:48:30.114Z,70.22
2022-09-10T03:50:56.973Z,70.25
2022-09-10T03:53:23.790Z,70.27
2022-09-10T03:55:51.770Z,70.48
2022-09-10T03:58:18.486Z,70.22
2022-09-10T04:00:46.358Z,70.38
2022-09-10T04:03:14.338Z,70.32
2022-09-10T04:05:43.586Z,70.28
2022-09-10T04:08:11.528Z,70.26
2022-09-10T04:10:39.123Z,70.19
2022-09-10T04:13:05.976Z,70.30
2022-09-10T04:15:32.964Z,70.19
2022-09-10T04:17:59.698Z,70.20
2022-09-10T04:20:26.658Z,70.15
2022-09-10T04:22:53.743Z,70.26
2022-09-10T04:25:20.605Z,70.18
2022-09-10T04:27:47.320Z,70.40
2022-09-10T04:30:14.022Z,70.08
2022-09-10T04:32:40.718Z,70.10
2022-09-10T04:35:08.158Z,70.17
2022-09-10T04:37:35.319Z,70.25
2022-09-10T04:40:02.224Z,70.14
2022-09-10T04:42:31.719Z,70.08
2022-09-10T04:44:59.124Z,70.42
2022-09-10T04:47:25.909Z,70.60
2022-09-10T04:49:52.621Z,70.26
2022-09-10T04:52:22.626Z,70.43
2022-09-10T04:54:49.499Z,70.33
2022-09-10T04:57:16.189Z,70.28
2022-09-10T04:59:43.324Z,70.35
2022-09-10T05:02:10.402Z,70.56
2022-09-10T05:04:37.138Z,70.24
2022-09-10T05:07:03.877Z,70.47
2022-09-10T05:09:31.466Z,70.38
2022-09-10T05:11:58.390Z,70.20
2022-09-10T05:14:29.284Z,70.66
2022-09-10T05:16:56.338Z,70.89
2022-09-10T05:19:23.042Z,70.70
2022-09-10T05:21:49.765Z,70.56
2022-09-10T05:24:16.773Z,70.80
2022-09-10T05:26:44.119Z,70.82
2022-09-10T05:29:11.390Z,70.69
2022-09-10T05:31:38.206Z,70.55
2022-09-10T05:34:05.039Z,70.63
2022-09-10T05:36:32.025Z,70.68
2022-09-10T05:39:00.200Z,70.79
2022-09-10T05:41:28.074Z,70.60
2022-09-10T05:43:54.968Z,70.93
2022-09-10T05:46:22.465Z,70.73
2022-09-10T05:48:49.188Z,70.86
2022-09-10T05:51:16.808Z,70.90
2022-09-10T05:53:43.532Z,70.80
2022-09-10T05:56:10.265Z,70.87
2022-09-10T05:58:37.021Z,70.72
2022-09-10T06:01:03.735Z,70.94
2022-09-10T06:03:30.456Z,70.90
2022-09-10T06:05:57.157Z,70.81
2022-09-10T06:08:23.879Z,70.89
2022-09-10T06:11:05.751Z,71.10
2022-09-10T06:13:37.740Z,71.00
2022-09-10T06:16:05.043Z,70.97
2022-09-10T06:18:33.063Z,70.81
2022-09-10T06:21:19.401Z,70.87
2022-09-10T06:23:46.522Z,70.85
2022-09-10T06:26:15.360Z,70.86
2022-09-10T06:28:42.072Z,71.13
2022-09-10T06:31:10.847Z,71.09
2022-09-10T06:33:37.595Z,71.23
2022-09-10T06:36:04.364Z,71.22
2022-09-10T06:38:33.579Z,71.60
2022-09-10T06:41:01.876Z,71.50
2022-09-10T06:43:32.576Z,71.42
2022-09-10T06:45:59.316Z,70.96
2022-09-10T06:48:47.647Z,71.11
2022-09-10T06:51:14.856Z,71.16
2022-09-10T06:53:42.497Z,71.12
2022-09-10T06:56:13.254Z,70.86
2022-09-10T06:58:40.128Z,71.23
2022-09-10T07:01:11.868Z,71.19
2022-09-10T07:03:38.586Z,71.29
2022-09-10T07:06:07.335Z,71.65
2022-09-10T07:08:34.125Z,71.88
2022-09-10T07:11:03.313Z,71.68
2022-09-10T07:13:30.344Z,71.69
2022-09-10T07:15:57.556Z,71.43
2022-09-10T07:18:25.547Z,71.20
2022-09-10T07:20:52.253Z,71.46
2022-09-10T07:23:21.006Z,71.45
2022-09-10T07:25:48.120Z,71.34
2022-09-10T07:28:18.038Z,71.31
2022-09-10T07:30:45.257Z,71.55
2022-09-10T07:33:12.015Z,71.08
2022-09-10T07:35:38.969Z,70.62
2022-09-10T07:38:06.888Z,70.29
2022-09-10T07:40:34.161Z,69.30
2022-09-10T07:43:00.945Z,68.06
2022-09-10T07:45:28.161Z,66.70
2022-09-10T07:47:54.963Z,65.62
2022-09-10T07:50:21.735Z,64.72
2022-09-10T07:52:49.129Z,64.03
2022-09-10T07:55:17.810Z,63.82
2022-09-10T07:57:45.476Z,63.82
2022-09-10T08:00:14.750Z,64.41
2022-09-10T08:02:42.786Z,64.66
2022-09-10T08:05:13.640Z,64.85
2022-09-10T08:07:41.182Z,65.02
2022-09-10T08:10:09.721Z,65.41
2022-09-10T08:12:37.457Z,65.56
2022-09-10T08:15:04.919Z,65.90
2022-09-10T08:17:31.962Z,66.19
2022-09-10T08:19:59.248Z,66.61
2022-09-10T08:22:26.047Z,67.08
2022-09-10T08:24:53.288Z,67.40
2022-09-10T08:27:20.114Z,67.39
2022-09-10T08:29:46.818Z,67.13
2022-09-10T08:32:13.542Z,66.82
2022-09-10T08:34:40.659Z,66.28
2022-09-10T08:37:07.777Z,66.39
2022-09-10T08:39:34.526Z,66.53
2022-09-10T08:42:22.428Z,67.42
2022-09-10T08:45:06.358Z,67.15
2022-09-10T08:47:44.485Z,66.83
2022-09-10T08:50:22.383Z,66.78
2022-09-10T08:52:52.756Z,66.91
2022-09-10T08:55:26.289Z,67.00
2022-09-10T08:58:02.378Z,67.63
2022-09-10T09:00:34.645Z,68.07
2022-09-10T09:03:11.796Z,68.12
2022-09-10T09:05:46.747Z,67.69
2022-09-10T09:08:16.678Z,67.80
2022-09-10T09:10:52.810Z,67.89
2022-09-10T09:13:47.458Z,67.78
2022-09-10T09:16:28.746Z,67.51
2022-09-10T09:19:18.637Z,67.30
2022-09-10T09:21:56.410Z,66.89
2022-09-10T09:24:45.607Z,67.03
2022-09-10T09:27:16.766Z,66.88
2022-09-10T09:30:03.200Z,66.65
2022-09-10T09:32:33.531Z,66.80
2022-09-10T09:35:11.114Z,66.73
2022-09-10T09:37:38.294Z,67.09
2022-09-10T09:40:26.341Z,67.11
2022-09-10T09:43:13.237Z,67.10
2022-09-10T09:45:43.967Z,67.14
2022-09-10T09:48:15.959Z,67.10
2022-09-10T09:50:45.508Z,67.47
2022-09-10T09:53:20.345Z,67.71
2022-09-10T09:55:50.156Z,67.86
2022-09-10T09:58:32.168Z,68.01
2022-09-10T10:01:04.972Z,68.01
2022-09-10T10:03:35.828Z,67.97
2022-09-10T10:06:03.097Z,68.41
2022-09-10T10:08:37.624Z,68.34
2022-09-10T10:11:04.693Z,68.27
2022-09-10T10:13:47.690Z,68.57
2022-09-10T10:16:22.050Z,68.58
2022-09-10T10:18:48.823Z,68.57
2022-09-10T10:21:29.705Z,68.30
2022-09-10T10:23:56.921Z,68.38
2022-09-10T10:26:32.052Z,68.36
2022-09-10T10:29:01.542Z,68.35
2022-09-10T10:31:40.304Z,68.53
2022-09-10T10:34:10.101Z,68.53
2022-09-10T10:36:53.239Z,68.44
2022-09-10T10:39:28.972Z,68.65
2022-09-10T10:42:13.809Z,68.43
2022-09-10T10:45:02.291Z,68.36
2022-09-10T10:47:38.773Z,68.64
2022-09-10T10:50:18.192Z,68.49
2022-09-10T10:52:58.158Z,68.41
2022-09-10T10:55:30.001Z,68.68
2022-09-10T10:58:27.633Z,69.00
2022-09-10T11:01:02.165Z,69.27
2022-09-10T11:03:36.753Z,69.00
2022-09-10T11:06:08.190Z,69.05
2022-09-10T11:09:01.190Z,69.03
2022-09-10T11:11:33.111Z,68.90
2022-09-10T11:14:21.029Z,69.02
2022-09-10T11:16:58.519Z,68.95
2022-09-10T11:20:05.343Z,68.72
2022-09-10T11:22:43.262Z,69.31
2022-09-10T11:25:30.540Z,69.37
2022-09-10T11:28:04.124Z,69.48
2022-09-10T11:30:32.093Z,69.33
2022-09-10T11:33:07.489Z,69.62
2022-09-10T11:35:39.961Z,69.25
2022-09-10T11:38:29.065Z,69.16
2022-09-10T11:54:14.922Z,69.12
2022-09-10T11:56:52.801Z,69.28
2022-09-10T12:00:04.281Z,69.27
2022-09-10T12:02:53.433Z,69.62
2022-09-10T12:05:29.126Z,69.27
2022-09-10T12:08:12.267Z,69.14
2022-09-10T12:10:44.956Z,68.84
2022-09-10T12:13:18.195Z,69.11
2022-09-10T12:15:55.983Z,68.91
2022-09-10T12:18:25.591Z,68.88
2022-09-10T12:20:54.985Z,68.78
2022-09-10T12:23:26.707Z,69.19
2022-09-10T12:25:58.638Z,69.11
2022-09-10T12:28:45.326Z,68.79
2022-09-10T12:31:17.297Z,68.50
2022-09-10T12:33:43.939Z,68.49
2022-09-10T12:36:25.764Z,68.35
2022-09-10T12:39:16.255Z,68.05
2022-09-10T12:41:42.870Z,68.18
2022-09-10T12:44:43.344Z,68.57
2022-09-10T12:47:16.107Z,68.46
2022-09-10T12:49:57.110Z,68.44
2022-09-10T12:53:01.665Z,68.69
2022-09-10T12:55:48.372Z,68.86
2022-09-10T12:58:24.003Z,68.71
2022-09-10T13:00:53.772Z,68.97
2022-09-10T13:03:21.579Z,68.91
2022-09-10T13:05:54.143Z,68.49
2022-09-10T13:08:25.573Z,68.15
2022-09-10T13:10:56.306Z,67.93
2022-09-10T13:13:34.077Z,67.44
2022-09-10T13:16:01.393Z,67.62
2022-09-10T13:18:33.896Z,67.69
2022-09-10T13:21:23.242Z,68.17
2022-09-10T13:23:54.214Z,68.18
2022-09-10T13:26:39.148Z,68.29
2022-09-10T13:29:13.693Z,68.21
2022-09-10T13:31:44.068Z,68.50
2022-09-10T13:34:17.805Z,68.51
2022-09-10T13:36:56.518Z,68.27
2022-09-10T13:39:42.059Z,68.20
2022-09-10T13:42:27.587Z,68.24
2022-09-10T13:45:33.469Z,68.38
2022-09-10T13:48:02.505Z,68.74
2022-09-10T13:50:39.835Z,68.31
2022-09-10T13:53:10.848Z,68.74
2022-09-10T13:55:37.900Z,68.64
2022-09-10T13:58:09.446Z,68.70
2022-09-10T14:00:48.341Z,68.74
2022-09-10T14:03:19.551Z,68.97
2022-09-10T14:05:48.706Z,68.72
2022-09-10T14:08:20.313Z,68.67
2022-09-10T14:11:00.811Z,68.82
2022-09-10T14:13:30.924Z,69.04
2022-09-10T14:15:59.532Z,68.86
2022-09-10T14:18:31.883Z,69.12
2022-09-10T14:20:59.702Z,68.96
2022-09-10T14:23:26.665Z,68.78
2022-09-10T14:26:23.192Z,68.83
2022-09-10T14:28:51.941Z,68.93
2022-09-10T14:31:24.696Z,69.12
2022-09-10T14:33:51.837Z,69.12
2022-09-10T14:36:22.994Z,69.12
2022-09-10T14:39:18.247Z,69.14
2022-09-10T14:41:45.221Z,69.26
2022-09-10T14:44:22.163Z,69.08
2022-09-10T14:46:59.268Z,69.07
2022-09-10T14:49:26.656Z,68.84
2022-09-10T14:51:53.876Z,69.33
2022-09-10T14:54:20.615Z,69.40
2022-09-10T14:56:47.703Z,69.29
2022-09-10T14:59:31.062Z,69.47
2022-09-10T15:01:59.087Z,69.26
2022-09-10T15:04:26.686Z,69.46
2022-09-10T15:06:54.505Z,69.60
2022-09-10T15:09:21.680Z,69.96
2022-09-10T15:11:55.356Z,69.86
2022-09-10T15:14:23.085Z,69.64
2022-09-10T15:16:52.799Z,69.89
2022-09-10T15:19:20.255Z,69.89
2022-09-10T15:21:47.167Z,69.29
2022-09-10T15:24:16.970Z,69.42
2022-09-10T15:26:43.804Z,69.83
2022-09-10T15:29:11.241Z,70.19
2022-09-10T15:31:38.468Z,70.06
2022-09-10T15:34:07.014Z,69.96
2022-09-10T15:36:35.304Z,69.87
2022-09-10T15:39:02.099Z,70.06
2022-09-10T15:41:29.745Z,69.90
2022-09-10T15:43:57.084Z,69.93
2022-09-10T15:46:24.655Z,69.98
2022-09-10T15:48:52.538Z,70.04
2022-09-10T15:51:21.477Z,69.62
2022-09-10T15:53:49.383Z,69.90
2022-09-10T15:56:16.611Z,69.84
2022-09-10T15:58:51.862Z,69.96
2022-09-10T16:01:18.803Z,69.35
2022-09-10T16:03:50.772Z,69.08
2022-09-10T16:06:19.475Z,68.69
2022-09-10T16:08:57.243Z,67.58
2022-09-10T16:11:24.956Z,68.03
2022-09-10T16:13:52.278Z,68.60
2022-09-10T16:16:23.752Z,68.92
2022-09-10T16:18:53.126Z,68.19
2022-09-10T16:21:26.078Z,67.96
2022-09-10T16:23:54.845Z,68.59
2022-09-10T16:26:27.191Z,68.94
2022-09-10T16:28:59.241Z,69.00
2022-09-10T16:31:36.810Z,68.79
2022-09-10T16:34:05.774Z,69.05
2022-09-10T16:36:34.470Z,69.10
2022-09-10T16:39:01.699Z,69.22
2022-09-10T16:41:29.227Z,69.22
2022-09-10T16:43:59.764Z,69.29
2022-09-10T16:46:27.391Z,69.20
2022-09-10T16:48:55.204Z,69.26
2022-09-10T16:51:24.433Z,69.32
2022-09-10T16:54:02.600Z,69.31
2022-09-10T16:56:34.398Z,69.38
2022-09-10T16:59:01.290Z,69.27
2022-09-10T17:01:28.384Z,69.16
2022-09-10T17:03:55.172Z,69.21
2022-09-10T17:06:26.893Z,69.23
2022-09-10T17:08:55.266Z,69.22
2022-09-10T17:11:22.735Z,69.19
2022-09-10T17:13:50.935Z,69.28
2022-09-10T17:16:20.631Z,69.34
2022-09-10T17:18:48.377Z,69.38
2022-09-10T17:21:15.116Z,69.36
2022-09-10T17:23:41.875Z,69.27
2022-09-10T17:26:09.025Z,69.44
2022-09-10T17:28:36.857Z,69.42
2022-09-10T17:31:04.334Z,69.29
2022-09-10T17:33:31.253Z,69.49
2022-09-10T17:36:02.810Z,69.27
2022-09-10T17:38:30.614Z,69.22
2022-09-10T17:41:00.078Z,69.24
2022-09-10T17:43:35.092Z,69.11
2022-09-10T17:46:10.381Z,69.19
2022-09-10T17:48:37.920Z,69.26
2022-09-10T17:51:06.124Z,69.10
2022-09-10T17:53:34.114Z,68.94
2022-09-10T17:56:05.309Z,69.01
2022-09-10T17:58:34.852Z,68.97
2022-09-10T18:01:04.223Z,68.98
2022-09-10T18:03:33.744Z,68.80
2022-09-10T18:06:08.730Z,69.05
2022-09-10T18:08:37.623Z,68.90
2022-09-10T18:11:06.676Z,68.82
2022-09-10T18:13:34.495Z,68.74
2022-09-10T18:16:06.250Z,68.79
2022-09-10T18:18:36.398Z,68.81
2022-09-10T18:21:20.963Z,68.52
2022-09-10T18:24:12.277Z,68.48
2022-09-10T18:26:42.591Z,68.58
2022-09-10T18:29:21.047Z,68.70
2022-09-10T18:31:50.914Z,68.68
2022-09-10T18:34:23.232Z,68.66
2022-09-10T18:36:55.459Z,68.65
2022-09-10T18:39:23.353Z,68.55
2022-09-10T18:41:50.126Z,68.45
2022-09-10T18:44:20.626Z,68.40
2022-09-10T18:46:48.512Z,68.66
2022-09-10T18:49:20.922Z,68.66
2022-09-10T18:51:48.803Z,68.35
2022-09-10T18:54:16.879Z,68.32
2022-09-10T18:56:48.638Z,68.49
2022-09-10T18:59:17.401Z,68.31
2022-09-10T19:01:45.561Z,68.50
2022-09-10T19:04:21.616Z,68.43
2022-09-10T19:06:49.190Z,68.39
2022-09-10T19:09:18.698Z,68.08
2022-09-10T19:11:46.992Z,68.33
2022-09-10T19:14:16.121Z,68.55
2022-09-10T19:16:43.014Z,68.41
2022-09-10T19:19:18.435Z,68.33
2022-09-10T19:21:49.557Z,68.31
2022-09-10T19:24:17.099Z,68.16
2022-09-10T19:26:44.653Z,68.34
2022-09-10T19:29:13.537Z,68.34
2022-09-10T19:31:41.066Z,68.17
2022-09-10T19:34:08.445Z,68.28
2022-09-10T19:36:35.793Z,68.21
2022-09-10T19:39:08.040Z,68.32
2022-09-10T19:41:35.968Z,68.29
2022-09-10T19:44:03.022Z,68.42
2022-09-10T19:46:30.415Z,68.18
2022-09-10T19:48:59.588Z,68.46
2022-09-10T19:51:28.546Z,68.27
2022-09-10T19:53:55.608Z,68.39
2022-09-10T19:56:25.077Z,68.45
2022-09-10T19:58:53.496Z,68.03
2022-09-10T20:01:23.394Z,68.10
2022-09-10T20:03:50.912Z,68.32
2022-09-10T20:06:19.433Z,68.06
2022-09-10T20:08:48.026Z,68.17
2022-09-10T20:11:16.800Z,68.08
2022-09-10T20:13:45.094Z,67.86
2022-09-10T20:16:12.468Z,68.07
2022-09-10T20:18:39.290Z,67.94
2022-09-10T20:21:15.995Z,67.97
2022-09-10T20:23:46.146Z,67.84
2022-09-10T20:26:30.438Z,68.17
2022-09-10T20:29:00.946Z,68.25
2022-09-10T20:31:29.192Z,67.76
2022-09-10T20:34:00.735Z,67.92
2022-09-10T20:36:28.421Z,67.91
2022-09-10T20:38:55.880Z,67.85
2022-09-10T20:41:23.378Z,67.78
2022-09-10T20:43:53.979Z,67.78
2022-09-10T20:46:22.188Z,67.97
2022-09-10T20:48:49.925Z,67.87
2022-09-10T20:51:17.905Z,67.87
2022-09-10T20:53:45.030Z,67.84
2022-09-10T20:56:14.172Z,67.60
2022-09-10T20:58:41.606Z,67.43
2022-09-10T21:01:16.458Z,67.74
2022-09-10T21:03:43.634Z,67.25
2022-09-10T21:06:11.588Z,67.79
2022-09-10T21:08:39.195Z,67.48
2022-09-10T21:11:08.865Z,67.48
2022-09-10T21:13:36.940Z,67.63
2022-09-10T21:16:07.246Z,67.37
2022-09-10T21:18:35.087Z,67.60
2022-09-10T21:21:12.501Z,67.84
2022-09-10T21:23:46.791Z,67.38
2022-09-10T21:26:14.599Z,67.66
2022-09-10T21:28:41.952Z,67.61
2022-09-10T21:31:09.757Z,67.45
2022-09-10T21:33:36.881Z,67.47
2022-09-10T21:36:18.110Z,67.48
2022-09-10T21:38:52.331Z,67.41
2022-09-10T21:41:23.552Z,67.38
2022-09-10T21:43:50.255Z,67.57
2022-09-10T21:46:17.027Z,67.19
2022-09-10T21:48:44.017Z,67.28
2022-09-10T21:51:15.578Z,67.26
2022-09-10T21:53:42.732Z,67.06
2022-09-10T21:56:12.511Z,67.24
2022-09-10T21:58:39.319Z,66.96
2022-09-10T22:01:18.191Z,67.21
2022-09-10T22:03:47.162Z,67.18
2022-09-10T22:06:24.800Z,66.77
2022-09-10T22:08:53.698Z,66.82
2022-09-10T22:11:23.883Z,67.10
2022-09-10T22:13:55.544Z,67.35
2022-09-10T22:16:25.049Z,67.25
2022-09-10T22:18:52.446Z,67.24
2022-09-10T22:21:19.583Z,67.14
2022-09-10T22:23:46.288Z,67.34
2022-09-10T22:26:15.135Z,67.40
2022-09-10T22:28:42.462Z,67.34
2022-09-10T22:31:13.466Z,67.34
2022-09-10T22:33:42.400Z,67.51
2022-09-10T22:36:20.603Z,67.30
2022-09-10T22:38:52.074Z,67.22
2022-09-10T22:41:19.571Z,67.49
2022-09-10T22:43:46.273Z,67.54
2022-09-10T22:46:13.095Z,67.46
2022-09-10T22:48:42.370Z,67.59
2022-09-10T22:51:30.524Z,67.39
2022-09-10T22:53:58.051Z,67.52
2022-09-10T22:56:28.719Z,67.51
2022-09-10T22:58:57.231Z,67.85
2022-09-10T23:01:30.887Z,67.64
2022-09-10T23:03:59.206Z,67.63
2022-09-10T23:06:28.397Z,67.49
2022-09-10T23:08:57.997Z,67.47
2022-09-10T23:11:30.097Z,67.79
2022-09-10T23:13:59.326Z,67.55
2022-09-10T23:16:28.932Z,67.57
2022-09-10T23:18:56.941Z,67.59
2022-09-10T23:21:24.959Z,67.72
2022-09-10T23:23:54.059Z,67.50
2022-09-10T23:26:21.595Z,67.49
2022-09-10T23:28:48.437Z,67.44
2022-09-10T23:31:20.545Z,67.46
2022-09-10T23:34:11.286Z,67.69
2022-09-10T23:36:40.315Z,67.64
2022-09-10T23:39:12.655Z,67.55
2022-09-10T23:41:39.450Z,67.68
2022-09-10T23:44:06.170Z,67.66
2022-09-10T23:46:33.074Z,67.84
2022-09-10T23:49:00.313Z,67.94
2022-09-10T23:51:27.090Z,67.66
2022-09-10T23:53:55.912Z,67.81
2022-09-10T23:56:25.416Z,67.84
2022-09-10T23:58:52.528Z,67.92
